Time;durP1;ratioP1;P1;durP2;ratioP2;P2;SDS_P1;SDS_P2;PMS_P1;PMS_P2;Temp;Humidity;BMP_temperature;BMP_pressure;BME280_temperature;BME280_humidity;BME280_pressure;Samples;Min_cycle;Max_cycle;Signal;HPM_P1;HPM_P2
2023/10/16 00:02:16;;;;;;;4.40;0.77;;;;;;;;;;5042945;28;20102;-73
2023/10/16 00:04:45;;;;;;;3.40;0.70;;;;;;;;;;5029268;28;20386;-74
2023/10/16 00:07:15;;;;;;;2.85;0.50;;;;;;;;;;5039524;28;20051;-74
2023/10/16 00:09:43;;;;;;;9.40;0.80;;;;;;;;;;5040865;28;20032;-74
2023/10/16 00:12:09;;;;;;;4.70;0.68;;;;;;;;;;5045426;28;20043;-74
2023/10/16 00:14:36;;;;;;;3.00;0.50;;;;;;;;;;5039835;28;20041;-74
2023/10/16 00:17:09;;;;;;;4.00;0.50;;;;;;;;;;5042075;28;20112;-74
2023/10/16 00:19:37;;;;;;;3.35;0.43;;;;;;;;;;5030598;28;20041;-74
2023/10/16 00:22:13;;;;;;;3.50;0.73;;;;;;;;;;5039361;28;20098;-74
2023/10/16 00:24:45;;;;;;;4.50;0.60;;;;;;;;;;5038545;28;20037;-73
2023/10/16 00:27:14;;;;;;;2.95;0.38;;;;;;;;;;5042029;28;20033;-74
2023/10/16 00:29:41;;;;;;;4.30;0.60;;;;;;;;;;5041360;28;20087;-74
2023/10/16 00:32:07;;;;;;;2.80;0.50;;;;;;;;;;5040359;28;20088;-74
2023/10/16 00:34:34;;;;;;;3.55;0.60;;;;;;;;;;5042259;28;20040;-74
2023/10/16 00:37:07;;;;;;;4.85;0.57;;;;;;;;;;5041129;28;20031;-74
2023/10/16 00:39:32;;;;;;;;;;;;;;;;;;5042277;28;20061;-74
2023/10/16 00:41:59;;;;;;;4.85;0.45;;;;;;;;;;5037897;28;19955;-74
2023/10/16 00:44:34;;;;;;;4.50;0.73;;;;;;;;;;5043852;28;20033;-74
2023/10/16 00:47:04;;;;;;;5.05;1.80;;;;;;;;;;5037354;28;20124;-73
2023/10/16 00:49:30;;;;;;;5.05;0.70;;;;;;;;;;5037963;28;20079;-73
2023/10/16 00:51:56;;;;;;;4.32;0.73;;;;;;;;;;5045270;28;20043;-73
2023/10/16 00:54:30;;;;;;;2.80;0.75;;;;;;;;;;5038494;28;20784;-73
2023/10/16 00:57:00;;;;;;;1.85;0.60;;;;;;;;;;5037930;28;20029;-73
2023/10/16 00:59:26;;;;;;;3.60;0.82;;;;;;;;;;5029375;28;20184;-74
2023/10/16 01:02:05;;;;;;;3.08;0.60;;;;;;;;;;5042514;28;20128;-72
2023/10/16 01:04:31;;;;;;;2.35;0.50;;;;;;;;;;5037595;28;20057;-74
2023/10/16 01:06:57;;;;;;;2.22;0.52;;;;;;;;;;5033377;28;20045;-73
2023/10/16 01:09:24;;;;;;;5.65;2.08;;;;;;;;;;5043605;28;20067;-74
2023/10/16 01:11:50;;;;;;;3.47;0.68;;;;;;;;;;5042904;28;20029;-74
2023/10/16 01:14:16;;;;;;;2.13;0.60;;;;;;;;;;5044375;28;20449;-74
2023/10/16 01:16:43;;;;;;;4.15;0.90;;;;;;;;;;5043447;28;20061;-73
2023/10/16 01:19:10;;;;;;;5.70;0.93;;;;;;;;;;5045234;28;20076;-74
2023/10/16 01:21:36;;;;;;;2.78;0.80;;;;;;;;;;5045975;28;20566;-74
2023/10/16 01:24:09;;;;;;;9.85;1.20;;;;;;;;;;5048439;28;20040;-74
2023/10/16 01:26:35;;;;;;;4.55;1.55;;;;;;;;;;5045610;28;20111;-73
2023/10/16 01:29:07;;;;;;;2.03;0.70;;;;;;;;;;5045182;28;20112;-74
2023/10/16 01:31:33;;;;;;;2.50;0.90;;;;;;;;;;5048537;28;20394;-73
2023/10/16 01:33:59;;;;;;;2.50;0.70;;;;;;;;;;5046934;28;20133;-73
2023/10/16 01:36:25;;;;;;;6.13;0.82;;;;;;;;;;5047622;28;20029;-73
2023/10/16 01:38:51;;;;;;;7.80;1.02;;;;;;;;;;5045735;28;20033;-73
2023/10/16 01:41:18;;;;;;;4.43;1.13;;;;;;;;;;5049413;28;20501;-73
2023/10/16 01:43:51;;;;;;;7.63;1.10;;;;;;;;;;5046347;28;20087;-73
2023/10/16 01:46:18;;;;;;;4.63;0.95;;;;;;;;;;5050476;28;20045;-73
2023/10/16 01:48:44;;;;;;;4.30;0.70;;;;;;;;;;5042287;28;20235;-73
2023/10/16 01:51:20;;;;;;;5.28;0.63;;;;;;;;;;5029294;28;20060;-73
2023/10/16 01:53:55;;;;;;;3.17;0.80;;;;;;;;;;5041854;28;20056;-77
2023/10/16 01:56:22;;;;;;;8.45;2.35;;;;;;;;;;5029186;28;20040;-74
2023/10/16 01:58:52;;;;;;;3.97;0.90;;;;;;;;;;5050778;28;20028;-75
2023/10/16 02:01:19;;;;;;;5.28;1.52;;;;;;;;;;5030912;28;20033;-75
2023/10/16 02:03:46;;;;;;;4.55;1.58;;;;;;;;;;5042932;28;20041;-74
2023/10/16 02:06:12;;;;;;;4.95;0.68;;;;;;;;;;5046896;28;20365;-74
2023/10/16 02:08:39;;;;;;;1.90;0.82;;;;;;;;;;5046284;28;20025;-74
2023/10/16 02:11:06;;;;;;;4.53;0.70;;;;;;;;;;5048293;28;20036;-74
2023/10/16 02:13:35;;;;;;;4.03;0.88;;;;;;;;;;5043996;28;20131;-74
2023/10/16 02:16:02;;;;;;;5.22;1.10;;;;;;;;;;5047884;28;20519;-74
2023/10/16 02:18:36;;;;;;;2.08;0.57;;;;;;;;;;5041995;28;20046;-74
2023/10/16 02:21:02;;;;;;;3.25;0.68;;;;;;;;;;5046190;28;20029;-74
2023/10/16 02:23:31;;;;;;;10.70;0.80;;;;;;;;;;5047788;28;20043;-73
2023/10/16 02:26:06;;;;;;;4.38;0.82;;;;;;;;;;5048237;28;20029;-74
2023/10/16 02:28:35;;;;;;;5.75;0.70;;;;;;;;;;5044759;28;20033;-74
2023/10/16 02:31:13;;;;;;;134.32;81.85;;;;;;;;;;5044108;28;20059;-74
2023/10/16 02:33:44;;;;;;;1.95;1.17;;;;;;;;;;5044250;28;20490;-74
2023/10/16 02:36:10;;;;;;;2.90;0.82;;;;;;;;;;5038340;28;20139;-74
2023/10/16 02:38:36;;;;;;;6.57;2.25;;;;;;;;;;5041995;28;20040;-73
2023/10/16 02:41:03;;;;;;;2.90;0.55;;;;;;;;;;5032250;28;20422;-74
2023/10/16 02:43:29;;;;;;;2.17;0.47;;;;;;;;;;5044949;28;20037;-73
2023/10/16 02:45:56;;;;;;;2.28;0.73;;;;;;;;;;5024846;28;20029;-73
2023/10/16 02:48:22;;;;;;;4.13;0.65;;;;;;;;;;5030344;28;20029;-73
2023/10/16 02:50:59;;;;;;;10.15;1.40;;;;;;;;;;5044067;28;20045;-73
2023/10/16 02:53:26;;;;;;;4.53;0.98;;;;;;;;;;5039275;28;20034;-73
2023/10/16 02:56:04;;;;;;;4.88;1.15;;;;;;;;;;5042197;28;20082;-73
2023/10/16 02:58:31;;;;;;;6.15;1.60;;;;;;;;;;5044952;28;20029;-73
2023/10/16 03:00:57;;;;;;;4.70;1.17;;;;;;;;;;5045313;28;20127;-73
2023/10/16 03:03:27;;;;;;;5.10;1.30;;;;;;;;;;5045269;28;20033;-73
2023/10/16 03:05:56;;;;;;;5.85;1.30;;;;;;;;;;5047317;28;20386;-73
2023/10/16 03:08:29;;;;;;;8.32;1.60;;;;;;;;;;5044080;28;20018;-73
2023/10/16 03:10:55;;;;;;;;;;;;;;;;;;5044181;28;20036;-73
2023/10/16 03:13:21;;;;;;;2.15;1.13;;;;;;;;;;5044395;28;19913;-73
2023/10/16 03:15:47;;;;;;;5.70;1.33;;;;;;;;;;5041452;28;20033;-74
2023/10/16 03:18:17;;;;;;;6.50;1.20;;;;;;;;;;5025266;28;20040;-73
2023/10/16 03:20:47;;;;;;;3.95;1.83;;;;;;;;;;5020383;28;20551;-73
2023/10/16 03:23:18;;;;;;;3.83;1.10;;;;;;;;;;5040021;28;20034;-73
2023/10/16 03:25:52;;;;;;;5.75;0.90;;;;;;;;;;5020521;28;20064;-73
2023/10/16 03:28:18;;;;;;;7.28;1.02;;;;;;;;;;5037551;28;20032;-74
2023/10/16 03:30:44;;;;;;;4.32;0.90;;;;;;;;;;5039240;28;20120;-74
2023/10/16 03:33:16;;;;;;;4.43;0.80;;;;;;;;;;5038187;28;20084;-74
2023/10/16 03:35:49;;;;;;;3.72;1.08;;;;;;;;;;5037514;28;20052;-74
2023/10/16 03:38:24;;;;;;;8.43;0.80;;;;;;;;;;5038023;28;20171;-74
2023/10/16 03:40:51;;;;;;;8.30;1.00;;;;;;;;;;5037672;28;20037;-74
2023/10/16 03:43:22;;;;;;;7.72;1.20;;;;;;;;;;5041416;28;22468;-74
2023/10/16 03:45:49;;;;;;;5.40;0.80;;;;;;;;;;5037936;28;20017;-74
2023/10/16 03:48:17;;;;;;;9.95;1.20;;;;;;;;;;5041739;28;20021;-73
2023/10/16 03:50:43;;;;;;;4.88;0.95;;;;;;;;;;5035373;28;20041;-73
2023/10/16 03:53:09;;;;;;;5.68;1.65;;;;;;;;;;5038790;28;20033;-73
2023/10/16 03:55:46;;;;;;;5.82;0.82;;;;;;;;;;5037708;28;20470;-73
2023/10/16 03:58:12;;;;;;;7.72;1.00;;;;;;;;;;5040624;28;20470;-73
2023/10/16 04:01:12;;;;;;;3.35;0.88;;;;;;;;;;5017482;28;20057;-73
2023/10/16 04:03:46;;;;;;;4.60;0.82;;;;;;;;;;5036474;28;20036;-73
2023/10/16 04:06:12;;;;;;;3.75;1.38;;;;;;;;;;5039122;28;20094;-73
2023/10/16 04:08:38;;;;;;;6.60;1.23;;;;;;;;;;5022868;28;20029;-73
2023/10/16 04:11:03;;;;;;;7.75;1.42;;;;;;;;;;5035287;28;20038;-73
2023/10/16 04:13:31;;;;;;;4.15;0.65;;;;;;;;;;5040915;28;20112;-73
2023/10/16 04:18:30;;;;;;;10.35;1.45;;;;;;;;;;5038624;28;20037;-73
2023/10/16 04:21:37;;;;;;;3.85;1.23;;;;;;;;;;5035854;28;20025;-73
2023/10/16 04:31:57;;;;;;;8.43;0.90;;;;;;;;;;5038818;28;20376;-73
2023/10/16 04:36:53;;;;;;;2.78;0.88;;;;;;;;;;5035361;28;20104;-73
2023/10/16 04:47:48;;;;;;;7.13;1.33;;;;;;;;;;5035219;28;20115;-73
2023/10/16 04:50:15;;;;;;;4.57;1.13;;;;;;;;;;5041750;28;20049;-73
2023/10/16 05:03:24;;;;;;;4.30;1.10;;;;;;;;;;5040627;28;20052;-74
2023/10/16 05:06:04;;;;;;;6.75;2.00;;;;;;;;;;5040934;28;20057;-74
2023/10/16 05:08:34;;;;;;;3.75;1.00;;;;;;;;;;5039125;28;20037;-74
2023/10/16 06:16:21;;;;;;;4.07;1.33;;;;;;;;;;5039791;28;20140;-73
2023/10/16 06:18:47;;;;;;;5.90;1.25;;;;;;;;;;5027482;28;20063;-74
2023/10/16 06:21:17;;;;;;;7.40;2.25;;;;;;;;;;5040646;28;20108;-74
2023/10/16 06:23:49;;;;;;;11.02;5.28;;;;;;;;;;5035749;28;20045;-74
2023/10/16 06:26:16;;;;;;;10.55;6.28;;;;;;;;;;5022565;28;20789;-74
2023/10/16 06:28:49;;;;;;;12.32;5.80;;;;;;;;;;5036044;28;20029;-73
2023/10/16 06:31:24;;;;;;;9.73;4.45;;;;;;;;;;5041057;28;20043;-74
2023/10/16 06:33:53;;;;;;;7.43;3.33;;;;;;;;;;5041360;28;20025;-75
2023/10/16 06:36:20;;;;;;;8.00;2.80;;;;;;;;;;5045627;28;20028;-79
2023/10/16 06:38:46;;;;;;;6.60;2.17;;;;;;;;;;5027741;28;20029;-76
2023/10/16 06:41:15;;;;;;;12.32;4.10;;;;;;;;;;5051250;28;20033;-76
2023/10/16 06:43:41;;;;;;;13.93;3.05;;;;;;;;;;5031276;28;20025;-76
2023/10/16 06:46:10;;;;;;;8.75;4.15;;;;;;;;;;5040877;28;20043;-78
2023/10/16 06:48:37;;;;;;;11.25;4.93;;;;;;;;;;5024997;28;20578;-80
2023/10/16 06:51:05;;;;;;;9.73;2.63;;;;;;;;;;5046817;28;20414;-77
2023/10/16 06:53:33;;;;;;;6.95;3.58;;;;;;;;;;5052717;28;20032;-82
2023/10/16 06:55:59;;;;;;;11.75;4.30;;;;;;;;;;5048554;28;20539;-77
2023/10/16 06:58:26;;;;;;;8.93;2.90;;;;;;;;;;5043704;28;20056;-77
2023/10/16 07:00:53;;;;;;;4.97;3.10;;;;;;;;;;5048693;28;20360;-78
2023/10/16 07:03:20;;;;;;;9.25;3.30;;;;;;;;;;5050354;28;20537;-77
2023/10/16 07:05:48;;;;;;;3.42;1.55;;;;;;;;;;5045410;28;20017;-78
2023/10/16 07:08:18;;;;;;;5.20;1.27;;;;;;;;;;5048485;28;20036;-77
2023/10/16 07:10:51;;;;;;;9.70;2.40;;;;;;;;;;5040836;28;20025;-78
2023/10/16 07:13:27;;;;;;;12.32;2.60;;;;;;;;;;5037131;28;20029;-77
2023/10/16 07:16:03;;;;;;;10.77;2.67;;;;;;;;;;5037823;28;20043;-75
2023/10/16 07:18:32;;;;;;;10.88;1.90;;;;;;;;;;5042372;28;20037;-78
2023/10/16 07:23:24;;;;;;;6.45;2.08;;;;;;;;;;5052973;28;20974;-77
2023/10/16 07:28:19;;;;;;;5.32;2.08;;;;;;;;;;5051970;28;20045;-77
2023/10/16 07:30:45;;;;;;;8.85;2.10;;;;;;;;;;5049397;28;20033;-78
2023/10/16 07:33:16;;;;;;;4.45;1.63;;;;;;;;;;5037317;28;20071;-76
2023/10/16 07:35:45;;;;;;;4.32;1.90;;;;;;;;;;5037526;28;20471;-76
2023/10/16 07:38:12;;;;;;;9.00;1.10;;;;;;;;;;5033485;28;20045;-75
2023/10/16 07:40:38;;;;;;;12.52;2.70;;;;;;;;;;5046419;28;20037;-74
2023/10/16 07:43:06;;;;;;;7.28;1.55;;;;;;;;;;5038443;28;20428;-75
2023/10/16 07:45:32;;;;;;;5.40;1.48;;;;;;;;;;5034633;28;20030;-73
2023/10/16 07:48:08;;;;;;;5.90;1.50;;;;;;;;;;5037832;28;20067;-76
2023/10/16 07:50:38;;;;;;;6.45;2.25;;;;;;;;;;5043235;28;20083;-76
2023/10/16 07:53:07;;;;;;;11.73;2.75;;;;;;;;;;5038259;28;20033;-74
2023/10/16 07:55:40;;;;;;;146.48;96.43;;;;;;;;;;5042348;28;20033;-73
2023/10/16 07:58:16;;;;;;;8.00;2.65;;;;;;;;;;5041415;28;20078;-73
2023/10/16 08:00:56;;;;;;;8.55;1.77;;;;;;;;;;5048445;28;20032;-72
2023/10/16 08:03:22;;;;;;;5.63;1.40;;;;;;;;;;5023121;28;20025;-79
2023/10/16 08:05:48;;;;;;;5.53;1.67;;;;;;;;;;5030771;28;20022;-78
2023/10/16 08:08:15;;;;;;;6.78;1.27;;;;;;;;;;5046644;28;20198;-78
2023/10/16 08:10:42;;;;;;;4.70;1.63;;;;;;;;;;5040736;28;20364;-75
2023/10/16 08:13:11;;;;;;;6.57;1.10;;;;;;;;;;5038412;28;20094;-77
2023/10/16 08:15:37;;;;;;;4.75;1.50;;;;;;;;;;5044153;28;20037;-76
2023/10/16 08:18:10;;;;;;;11.88;1.75;;;;;;;;;;5035442;28;20030;-76
2023/10/16 08:23:21;;;;;;;7.25;1.45;;;;;;;;;;5048196;28;19951;-76
2023/10/16 08:25:47;;;;;;;4.90;1.52;;;;;;;;;;5040171;28;20486;-77
2023/10/16 08:28:20;;;;;;;8.07;1.23;;;;;;;;;;5049743;28;20029;-76
2023/10/16 08:33:16;;;;;;;8.32;1.23;;;;;;;;;;5044143;28;20048;-78
2023/10/16 08:35:42;;;;;;;8.38;2.13;;;;;;;;;;5033932;28;20034;-77
2023/10/16 08:38:20;;;;;;;4.90;1.95;;;;;;;;;;5047927;28;20017;-77
2023/10/16 08:40:57;;;;;;;5.10;1.45;;;;;;;;;;5030952;28;20040;-77
2023/10/16 08:43:39;;;;;;;10.40;1.85;;;;;;;;;;5046124;28;20049;-77
2023/10/16 08:46:10;;;;;;;18.42;3.42;;;;;;;;;;5049227;28;20462;-77
2023/10/16 08:48:36;;;;;;;6.05;1.38;;;;;;;;;;5043055;28;20033;-77
2023/10/16 08:51:08;;;;;;;5.95;1.98;;;;;;;;;;5032353;28;20050;-77
2023/10/16 08:53:34;;;;;;;7.43;1.25;;;;;;;;;;5034589;28;20095;-76
2023/10/16 08:56:07;;;;;;;10.55;1.73;;;;;;;;;;5048747;28;20474;-77
2023/10/16 08:58:33;;;;;;;;;;;;;;;;;;5050745;28;20052;-76
2023/10/16 09:00:59;;;;;;;10.77;1.92;;;;;;;;;;5043919;28;19909;-76
2023/10/16 09:03:26;;;;;;;5.80;1.15;;;;;;;;;;5036885;28;20128;-78
2023/10/16 09:05:52;;;;;;;4.20;1.20;;;;;;;;;;5040164;28;20052;-77
2023/10/16 09:08:18;;;;;;;8.73;1.42;;;;;;;;;;5036903;28;20033;-77
2023/10/16 09:10:47;;;;;;;7.30;1.70;;;;;;;;;;5044433;28;20037;-76
2023/10/16 09:13:19;;;;;;;8.85;1.83;;;;;;;;;;5050899;28;20522;-77
2023/10/16 09:15:45;;;;;;;5.00;1.33;;;;;;;;;;5049913;28;20128;-77
2023/10/16 09:18:13;;;;;;;9.68;1.33;;;;;;;;;;5045495;28;20071;-77
2023/10/16 09:20:41;;;;;;;6.97;1.73;;;;;;;;;;5046870;28;20051;-77
2023/10/16 09:23:13;;;;;;;8.25;1.33;;;;;;;;;;5046397;28;20144;-77
2023/10/16 09:25:43;;;;;;;7.80;1.40;;;;;;;;;;5049157;28;20083;-76
2023/10/16 09:28:16;;;;;;;8.13;1.58;;;;;;;;;;5030941;28;20031;-77
2023/10/16 09:30:42;;;;;;;7.93;1.05;;;;;;;;;;5036364;28;20033;-77
2023/10/16 09:33:10;;;;;;;8.85;1.65;;;;;;;;;;5023139;28;20736;-77
2023/10/16 09:35:45;;;;;;;10.20;1.17;;;;;;;;;;5033442;28;20499;-76
2023/10/16 09:38:18;;;;;;;8.23;1.98;;;;;;;;;;5051888;28;20041;-77
2023/10/16 09:41:59;;;;;;;7.80;2.45;;;;;;;;;;5042612;28;20037;-77
2023/10/16 09:43:56;;;;;;;8.20;1.02;;;;;;;;;;5034297;28;20041;-77
2023/10/16 09:49:13;;;;;;;7.63;1.77;;;;;;;;;;5038649;28;20040;-78
2023/10/16 09:51:39;;;;;;;8.70;2.40;;;;;;;;;;5046974;28;20049;-79
2023/10/16 09:54:09;;;;;;;19.50;8.85;;;;;;;;;;5048022;28;20029;-82
2023/10/16 09:56:39;;;;;;;9.30;1.40;;;;;;;;;;5051666;28;20044;-74
2023/10/16 09:59:12;;;;;;;9.88;2.05;;;;;;;;;;5053091;28;20025;-78
2023/10/16 10:01:48;;;;;;;7.72;1.42;;;;;;;;;;5052314;28;20386;-77
2023/10/16 10:04:19;;;;;;;8.77;1.67;;;;;;;;;;5052084;28;20372;-73
2023/10/16 10:06:47;;;;;;;4.65;1.33;;;;;;;;;;5045392;28;20029;-73
2023/10/16 10:11:58;;;;;;;8.82;1.42;;;;;;;;;;5043551;28;20037;-77
2023/10/16 10:14:31;;;;;;;8.32;1.58;;;;;;;;;;5034802;28;20398;-73
2023/10/16 10:17:04;;;;;;;13.32;2.25;;;;;;;;;;5042268;28;20040;-73
2023/10/16 10:19:39;;;;;;;5.07;0.80;;;;;;;;;;5049014;28;20036;-73
2023/10/16 10:22:17;;;;;;;6.63;1.23;;;;;;;;;;5049839;28;20051;-73
2023/10/16 10:25:06;;;;;;;5.47;1.20;;;;;;;;;;5036945;28;20448;-75
2023/10/16 10:27:32;;;;;;;6.35;1.20;;;;;;;;;;5030675;28;20398;-73
2023/10/16 10:30:04;;;;;;;4.32;1.35;;;;;;;;;;5050535;28;20641;-73
2023/10/16 10:32:32;;;;;;;13.90;1.98;;;;;;;;;;5030010;28;20051;-73
2023/10/16 10:35:21;;;;;;;7.10;1.40;;;12.90;99.90;;;;;;5044798;28;20059;-73
2023/10/16 10:37:48;;;;;;;8.10;1.30;;;;;;;;;;5026369;28;20033;-75
2023/10/16 10:40:21;;;;;;;8.40;1.65;;;;;;;;;;5045854;28;20074;-75
2023/10/16 10:42:47;;;;;;;6.10;2.10;;;;;;;;;;5047150;28;20489;-72
2023/10/16 10:45:29;;;;;;;8.70;1.70;;;;;;;;;;5033015;28;20041;-74
2023/10/16 10:48:02;;;;;;;6.93;1.30;;;;;;;;;;5034957;28;20024;-75
2023/10/16 10:50:30;;;;;;;9.52;1.48;;;;;;;;;;5043763;28;20048;-74
2023/10/16 10:52:56;;;;;;;9.70;1.23;;;;;;;;;;5048942;28;20032;-74
2023/10/16 10:55:22;;;;;;;4.43;0.80;;;;;;;;;;5029596;28;20040;-75
2023/10/16 10:57:55;;;;;;;6.10;1.33;;;;;;;;;;5047614;28;20033;-75
2023/10/16 11:05:30;;;;;;;;;;;;;;;;;;5050891;28;20032;-74
2023/10/16 11:10:42;;;;;;;6.78;1.55;;;;;;;;;;5038267;28;20033;-75
2023/10/16 11:13:09;;;;;;;6.03;1.13;;;;;;;;;;5039632;28;20427;-85
2023/10/16 11:15:35;;;;;;;7.50;2.83;;;;;;;;;;5038339;28;20037;-82
2023/10/16 11:18:11;;;;;;;5.93;1.70;;;;;;;;;;5041078;28;20028;-76
2023/10/16 11:20:38;;;;;;;7.45;1.30;;;;;;;;;;5021121;28;20031;-75
2023/10/16 11:23:13;;;;;;;5.15;1.38;;;;;;;;;;5039356;28;20087;-75
2023/10/16 11:25:44;;;;;;;3.97;1.20;;;;;;;;;;5042014;28;20025;-75
2023/10/16 11:28:12;;;;;;;6.78;1.35;;;;;;;;;;5040390;28;20384;-76
2023/10/16 11:30:39;;;;;;;9.32;3.55;;;;;;;;;;5036264;28;20021;-75
2023/10/16 11:33:09;;;;;;;7.57;1.55;;;;;;;;;;5038326;28;20107;-78
2023/10/16 11:35:35;;;;;;;3.55;0.90;;;;;;;;;;5041596;28;20505;-76
2023/10/16 11:38:13;;;;;;;6.10;1.15;;;;;;;;;;5041521;28;20455;-75
2023/10/16 11:40:39;;;;;;;3.40;1.15;;;;;;;;;;5034961;28;20056;-76
2023/10/16 11:43:12;;;;;;;3.33;0.73;;;;;;;;;;5035816;28;20029;-76
2023/10/16 11:45:42;;;;;;;3.78;1.67;;;;;;;;;;5037934;28;20044;-75
2023/10/16 11:51:05;;;;;;;7.45;1.50;;;;;;;;;;5024460;28;20054;-76
2023/10/16 11:53:32;;;;;;;5.10;2.05;;;;;;;;;;5021520;28;20040;-76
2023/10/16 11:55:58;;;;;;;4.43;0.95;;;;;;;;;;5019939;28;20038;-77
2023/10/16 11:58:24;;;;;;;5.22;1.17;;;;;;;;;;5015851;28;20151;-77
2023/10/16 12:00:54;;;;;;;6.47;1.08;;;;;;;;;;5020954;28;20085;-77
2023/10/16 12:03:23;;;;;;;4.88;0.95;;;;;;;;;;5016350;28;20480;-77
2023/10/16 12:05:50;;;;;;;7.20;0.93;;;;;;;;;;5021266;28;20388;-77
2023/10/16 12:08:18;;;;;;;5.85;1.00;;;;;;;;;;5020444;28;20029;-77
2023/10/16 12:10:46;;;;;;;7.07;1.30;;;;;;;;;;5021424;28;20025;-77
2023/10/16 12:13:13;;;;;;;7.63;1.08;;;;;;;;;;5016861;28;20471;-77
2023/10/16 12:15:40;;;;;;;5.18;1.02;;;;;;;;;;5017685;28;20503;-76
2023/10/16 12:18:09;;;;;;;5.32;0.85;;;;;;;;;;5018674;28;20029;-77
2023/10/16 12:20:37;;;;;;;3.13;1.27;;;;;;;;;;5013862;28;20377;-77
2023/10/16 12:23:04;;;;;;;3.22;0.80;;;;;;;;;;5020379;28;20037;-77
2023/10/16 12:25:30;;;;;;;6.32;1.15;;;;;;;;;;5016749;28;20033;-77
2023/10/16 12:27:56;;;;;;;6.13;0.90;;;;;;;;;;5019277;28;20062;-77
2023/10/16 12:30:23;;;;;;;4.57;1.40;;;;;;;;;;5019914;28;20468;-76
2023/10/16 12:32:49;;;;;;;3.70;1.10;;;;;;;;;;5022559;28;20034;-77
2023/10/16 12:35:18;;;;;;;5.50;1.30;;;;;;;;;;5018015;28;20041;-76
2023/10/16 12:37:44;;;;;;;5.03;1.10;;;;;;;;;;5015280;28;20037;-76
2023/10/16 12:40:59;;;;;;;5.28;1.00;;;;;;;;;;5015765;28;20034;-76
2023/10/16 12:43:01;;;;;;;7.55;1.55;;;;;;;;;;5007998;28;20498;-76
2023/10/16 12:45:27;;;;;;;3.97;0.80;;;;;;;;;;5020656;28;20043;-76
2023/10/16 12:47:57;;;;;;;2.67;0.82;;;;;;;;;;5015818;28;20037;-76
2023/10/16 12:50:27;;;;;;;9.77;1.35;;;;;;;;;;5020386;28;20058;-76
2023/10/16 12:52:57;;;;;;;5.65;1.27;;;;;;;;;;5026594;28;20068;-76
2023/10/16 12:55:23;;;;;;;4.72;1.35;;;;;;;;;;5019404;28;20040;-76
2023/10/16 12:57:53;;;;;;;9.65;1.95;;;;;;;;;;5020067;28;20053;-76
2023/10/16 13:00:21;;;;;;;4.28;0.82;;;;;;;;;;5019266;28;20034;-77
2023/10/16 13:02:48;;;;;;;7.50;1.60;;;;;;;;;;5024382;28;20029;-75
2023/10/16 13:05:18;;;;;;;13.73;1.10;;;;;;;;;;5019202;28;20042;-77
2023/10/16 13:07:45;;;;;;;7.65;1.20;;;;;;;;;;5024116;28;20049;-76
2023/10/16 13:10:15;;;;;;;6.13;1.27;;;;;;;;;;5001466;28;20384;-77
2023/10/16 13:12:41;;;;;;;8.30;1.48;;;;;;;;;;5026184;28;20034;-78
2023/10/16 13:15:13;;;;;;;22.13;8.68;;;;;;;;;;5032447;28;20038;-78
2023/10/16 13:17:39;;;;;;;13.57;3.97;;;;;;;;;;5026714;28;20053;-77
2023/10/16 13:20:06;;;;;;;9.70;1.20;;;;;;;;;;5030617;28;20029;-77
2023/10/16 13:22:33;;;;;;;6.55;0.80;;;;;;;;;;5032010;28;20046;-78
2023/10/16 13:24:59;;;;;;;4.22;1.05;;;;;;;;;;5034267;28;20100;-84
2023/10/16 13:27:25;;;;;;;7.38;1.20;;;;;;;;;;5025756;28;20121;-81
2023/10/16 13:29:51;;;;;;;5.95;1.13;;;;;;;;;;5030149;28;20033;-76
2023/10/16 13:32:18;;;;;;;10.93;1.90;;;;;;;;;;5024517;28;20038;-79
2023/10/16 13:34:46;;;;;;;10.82;1.27;;;;;;;;;;5027639;28;20041;-84
2023/10/16 13:37:12;;;;;;;3.67;0.93;;;;;;;;;;5032360;28;20420;-87
2023/10/16 13:39:41;;;;;;;11.50;1.08;;;;;;;;;;5024929;28;20053;-84
2023/10/16 13:42:10;;;;;;;5.70;1.60;;;;;;;;;;5024106;28;20821;-76
2023/10/16 13:44:36;;;;;;;4.88;1.20;;;;;;;;;;5028540;28;20060;-77
2023/10/16 13:47:05;;;;;;;6.50;0.90;;;;;;;;;;5032911;28;20030;-77
2023/10/16 13:49:36;;;;;;;5.15;1.50;;;;;;;;;;5029844;28;20030;-77
2023/10/16 13:52:03;;;;;;;8.32;1.38;;;;;;;;;;5051920;28;20485;-77
2023/10/16 13:54:31;;;;;;;8.80;1.63;;;;;;;;;;5053212;28;20037;-78
2023/10/16 13:56:57;;;;;;;7.18;1.48;;;;;;;;;;5050656;28;20435;-78
2023/10/16 13:59:23;;;;;;;8.77;1.27;;;;;;;;;;5050738;28;20471;-77
2023/10/16 14:01:50;;;;;;;4.93;1.20;;;;;;;;;;5041937;28;20372;-77
2023/10/16 14:04:17;;;;;;;11.10;1.10;;;;;;;;;;5051826;28;20028;-77
2023/10/16 14:06:44;;;;;;;5.78;0.90;;;;;;;;;;5052996;28;20044;-77
2023/10/16 14:09:19;;;;;;;5.53;1.10;;;;;;;;;;5047331;28;20541;-77
2023/10/16 14:11:49;;;;;;;6.63;1.05;;;;;;;;;;5048276;28;20056;-77
2023/10/16 14:14:18;;;;;;;10.57;1.50;;;;;;;;;;5053235;28;20052;-77
2023/10/16 14:16:49;;;;;;;2.67;0.93;;;;;;;;;;5046773;28;20033;-77
2023/10/16 14:19:16;;;;;;;4.57;1.05;;;;;;;;;;5045035;28;20090;-77
2023/10/16 14:21:42;;;;;;;7.03;1.20;;;;;;;;;;5051447;28;20474;-77
2023/10/16 14:24:17;;;;;;;9.02;1.50;;;;;;;;;;5048875;28;20032;-79
2023/10/16 14:26:47;;;;;;;6.57;1.10;;;;;;;;;;5042812;28;20133;-79
2023/10/16 14:29:13;;;;;;;6.53;1.02;;;;;;;;;;5033351;28;20039;-79
2023/10/16 14:31:39;;;;;;;7.43;1.40;;;;;;;;;;5052517;28;20108;-78
2023/10/16 14:34:05;;;;;;;4.30;0.85;;;;;;;;;;5048013;28;20052;-79
2023/10/16 14:36:32;;;;;;;10.27;1.63;;;;;;;;;;5045976;28;20056;-80
2023/10/16 14:39:04;;;;;;;6.85;2.22;;;;;;;;;;5046542;28;20537;-79
2023/10/16 14:41:31;;;;;;;5.45;1.15;;;;;;;;;;5049286;28;20419;-87
2023/10/16 14:43:57;;;;;;;10.27;3.05;;;;;;;;;;5043802;28;20059;-83
2023/10/16 14:46:25;;;;;;;5.97;1.00;;;;;;;;;;5047088;28;20534;-78
2023/10/16 14:48:53;;;;;;;5.45;1.48;;;;;;;;;;5039293;28;20478;-81
2023/10/16 14:51:21;;;;;;;11.15;1.30;;;;;;;;;;5031604;28;20053;-78
2023/10/16 14:53:48;;;;;;;6.07;1.50;;;;;;;;;;5049087;28;20060;-77
2023/10/16 14:56:18;;;;;;;7.03;1.50;;;;;;;;;;5043120;28;20136;-76
2023/10/16 14:58:44;;;;;;;7.30;2.10;;;;;;;;;;5027212;28;20029;-77
2023/10/16 15:01:15;;;;;;;5.80;1.40;;;;;;;;;;5043121;28;20040;-77
2023/10/16 15:03:42;;;;;;;7.82;1.10;;;;;;;;;;5042554;28;20075;-78
2023/10/16 15:06:08;;;;;;;6.28;1.20;;;;;;;;;;5046678;28;20043;-77
2023/10/16 15:08:37;;;;;;;4.13;0.80;;;;;;;;;;5048704;28;20411;-77
2023/10/16 15:11:03;;;;;;;7.07;1.23;;;;;;;;;;5040003;28;20394;-77
2023/10/16 15:13:29;;;;;;;8.07;1.63;;;;;;;;;;5049971;28;20032;-76
2023/10/16 15:15:55;;;;;;;6.88;1.23;;;;;;;;;;5030410;28;20045;-76
2023/10/16 15:18:22;;;;;;;6.90;1.20;;;;;;;;;;5041861;28;20110;-77
2023/10/16 15:20:49;;;;;;;8.93;1.38;;;;;;;;;;5044736;28;20514;-77
2023/10/16 15:23:15;;;;;;;7.35;1.40;;;;;;;;;;5038275;28;20451;-76
2023/10/16 15:25:42;;;;;;;4.45;1.92;;;;;;;;;;5044946;28;20022;-75
2023/10/16 15:28:09;;;;;;;10.30;3.55;;;;;;;;;;5042627;28;20486;-75
2023/10/16 15:30:36;;;;;;;8.20;1.42;;;;;;;;;;5027779;28;20037;-80
2023/10/16 15:33:03;;;;;;;7.93;1.20;;;;;;;;;;5043660;28;20122;-83
2023/10/16 15:35:29;;;;;;;6.70;1.45;;;;;;;;;;5044356;28;20117;-78
2023/10/16 15:37:56;;;;;;;12.57;2.08;;;;;;;;;;5047777;28;20044;-82
2023/10/16 15:40:23;;;;;;;9.13;1.33;;;;;;;;;;5046520;28;20108;-83
2023/10/16 15:42:52;;;;;;;72.10;8.05;;;;;;;;;;5049306;28;20043;-80
2023/10/16 15:45:18;;;;;;;7.95;2.65;;;;;;;;;;5038957;28;20028;-77
2023/10/16 15:47:46;;;;;;;9.07;2.03;;;;;;;;;;5042586;28;20095;-79
2023/10/16 15:50:12;;;;;;;7.13;1.50;;;;;;;;;;5048458;28;20053;-76
2023/10/16 15:52:44;;;;;;;7.95;1.98;;;;;;;;;;5048037;28;20033;-77
2023/10/16 15:55:17;;;;;;;;;;;;;;;;;;5042448;28;20111;-77
2023/10/16 15:57:46;;;;;;;11.57;2.10;;;;;;;;;;5044596;28;19990;-78
2023/10/16 16:00:12;;;;;;;8.10;1.80;;;;;;;;;;5040979;28;20083;-76
2023/10/16 16:02:38;;;;;;;4.25;1.40;;;;;;;;;;5048778;28;20111;-78
2023/10/16 16:05:05;;;;;;;10.23;2.97;;;;;;;;;;5041700;28;20131;-81
2023/10/16 16:07:31;;;;;;;7.82;2.15;;;;;;;;;;5047203;28;20068;-82
2023/10/16 16:10:00;;;;;;;9.07;3.85;;;;;;;;;;5047254;28;20036;-82
2023/10/16 16:12:27;;;;;;;16.48;10.70;;;;;;;;;;5030846;28;20142;-83
2023/10/16 16:14:53;;;;;;;9.77;5.97;;;;;;;;;;5041705;28;20041;-83
2023/10/16 16:17:23;;;;;;;6.72;2.03;;;;;;;;;;5048938;28;20092;-82
2023/10/16 16:19:49;;;;;;;6.55;2.00;;;;;;;;;;5044676;28;20033;-82
2023/10/16 16:22:15;;;;;;;9.48;3.25;;;;;;;;;;5033251;28;20104;-80
2023/10/16 16:24:41;;;;;;;21.33;12.60;;;;;;;;;;5031358;28;20032;-84
2023/10/16 16:27:08;;;;;;;24.77;14.38;;;;;;;;;;5039253;28;20022;-83
2023/10/16 16:29:36;;;;;;;30.20;22.48;;;;;;;;;;5045968;28;20025;-85
2023/10/16 16:32:03;;;;;;;19.77;9.80;;;;;;;;;;5027935;28;20025;-84
2023/10/16 16:34:29;;;;;;;46.45;27.08;;;;;;;;;;5027317;28;20061;-82
2023/10/16 16:36:57;;;;;;;25.08;13.13;;;;;;;;;;5048458;28;20082;-86
2023/10/16 16:39:23;;;;;;;22.27;14.20;;;;;;;;;;5046898;28;20025;-80
2023/10/16 16:41:50;;;;;;;15.13;8.82;;;;;;;;;;5036716;28;20099;-78
2023/10/16 16:44:19;;;;;;;12.73;6.75;;;;;;;;;;5046106;28;20040;-79
2023/10/16 16:46:45;;;;;;;10.07;4.88;;;;;;;;;;5040585;28;20025;-79
2023/10/16 16:49:13;;;;;;;9.05;4.10;;;;;;;;;;5050695;28;20037;-80
2023/10/16 16:51:39;;;;;;;12.10;4.72;;;;;;;;;;5048718;28;20067;-81
2023/10/16 16:54:07;;;;;;;5.28;1.90;;;;;;;;;;5049989;28;20930;-82
2023/10/16 16:56:35;;;;;;;8.20;2.15;;;;;;;;;;5032216;28;20045;-82